createdAt,value
2022-08-23T00:01:52.213Z,97251.48
2022-08-23T00:04:34.715Z,97253.65
2022-08-23T00:07:05.339Z,97261.89
2022-08-23T00:09:33.975Z,97260.47
2022-08-23T00:12:17.954Z,97262.77
2022-08-23T00:14:50.308Z,97263.95
2022-08-23T00:17:33.808Z,97267.58
2022-08-23T00:20:09.602Z,97268.77
2022-08-23T00:22:40.658Z,97274.73
2022-08-23T00:25:11.288Z,97273.99
2022-08-23T00:27:40.180Z,97275.38
2022-08-23T00:30:10.897Z,97276.70
2022-08-23T00:32:41.143Z,97276.23
2022-08-23T00:35:14.312Z,97276.05
2022-08-23T00:38:32.072Z,97270.66
2022-08-23T00:40:52.100Z,97272.46
2022-08-23T00:43:48.125Z,97266.73
2022-08-23T00:46:57.862Z,97272.69
2022-08-23T00:49:26.675Z,97278.91
2022-08-23T00:52:09.775Z,97283.03
2022-08-23T00:54:41.370Z,97279.25
2022-08-23T00:57:13.713Z,97280.80
2022-08-23T00:59:42.139Z,97282.98
2022-08-23T01:02:10.501Z,97280.61
2022-08-23T01:04:47.172Z,97280.58
2022-08-23T01:07:27.895Z,97276.81
2022-08-23T01:10:02.536Z,97277.17
2022-08-23T01:12:37.824Z,97278.92
2022-08-23T01:15:31.759Z,97280.23
2022-08-23T01:18:21.705Z,97282.73
2022-08-23T01:21:02.874Z,97276.67
2022-08-23T01:23:41.437Z,97273.83
2022-08-23T01:26:13.468Z,97275.38
2022-08-23T01:28:43.999Z,97271.53
2022-08-23T01:31:16.431Z,97272.91
2022-08-23T01:33:50.214Z,97270.47
2022-08-23T01:36:18.650Z,97265.75
2022-08-23T01:38:47.133Z,97262.67
2022-08-23T01:41:15.538Z,97265.97
2022-08-23T01:43:43.951Z,97272.66
2022-08-23T01:46:18.147Z,97271.11
2022-08-23T01:48:48.702Z,97269.09
2022-08-23T01:51:19.448Z,97264.02
2022-08-23T01:53:47.934Z,97268.23
2022-08-23T01:56:38.347Z,97269.94
2022-08-23T01:59:12.698Z,97277.77
2022-08-23T02:01:48.247Z,97275.67
2022-08-23T02:04:17.254Z,97275.15
2022-08-23T02:06:45.967Z,97270.76
2022-08-23T02:09:18.383Z,97272.62
2022-08-23T02:11:48.845Z,97279.80
2022-08-23T02:14:19.810Z,97282.37
2022-08-23T02:17:02.933Z,97286.40
2022-08-23T02:19:36.620Z,97290.05
2022-08-23T02:22:06.839Z,97294.98
2022-08-23T02:24:35.732Z,97300.09
2022-08-23T02:27:05.323Z,97293.48
2022-08-23T02:29:39.253Z,97294.31
2022-08-23T02:32:12.702Z,97295.67
2022-08-23T02:34:42.804Z,97294.51
2022-08-23T02:37:13.674Z,97302.33
2022-08-23T02:39:42.840Z,97305.91
2022-08-23T02:42:11.914Z,97308.09
2022-08-23T02:44:41.909Z,97311.05
2022-08-23T02:47:12.155Z,97311.73
2022-08-23T02:49:42.677Z,97311.27
2022-08-23T02:52:11.112Z,97315.16
2022-08-23T02:54:39.716Z,97319.80
2022-08-23T02:57:09.459Z,97319.26
2022-08-23T02:59:37.618Z,97319.36
2022-08-23T03:02:06.934Z,97324.27
2022-08-23T03:04:38.642Z,97326.75
2022-08-23T03:07:07.122Z,97329.04
2022-08-23T03:09:36.086Z,97333.56
2022-08-23T03:12:05.278Z,97335.29
2022-08-23T03:14:35.341Z,97339.50
2022-08-23T03:17:07.795Z,97342.66
2022-08-23T03:19:35.924Z,97345.98
2022-08-23T03:22:04.080Z,97347.67
2022-08-23T03:24:33.498Z,97346.59
2022-08-23T03:27:02.594Z,97350.96
2022-08-23T03:29:32.157Z,97356.09
2022-08-23T03:32:04.159Z,97360.51
2022-08-23T03:34:36.254Z,97366.59
2022-08-23T03:37:07.134Z,97370.48
2022-08-23T03:39:35.360Z,97372.33
2022-08-23T03:42:03.680Z,97366.85
2022-08-23T03:44:35.530Z,97361.55
2022-08-23T03:47:06.049Z,97362.34
2022-08-23T03:49:34.713Z,97364.25
2022-08-23T03:52:05.956Z,97364.38
2022-08-23T03:54:34.748Z,97363.75
2022-08-23T03:57:07.428Z,97363.88
2022-08-23T03:59:39.734Z,97361.42
2022-08-23T04:02:11.270Z,97361.17
2022-08-23T04:04:39.930Z,97364.66
2022-08-23T04:07:36.296Z,97366.73
2022-08-23T04:10:06.698Z,97365.98
2022-08-23T04:12:37.367Z,97371.48
2022-08-23T04:15:07.084Z,97374.70
2022-08-23T04:17:36.722Z,97373.20
2022-08-23T04:20:06.330Z,97370.74
2022-08-23T04:22:37.839Z,97372.61
2022-08-23T04:25:29.936Z,97374.27
2022-08-23T04:27:55.098Z,97380.33
2022-08-23T04:30:23.549Z,97380.45
2022-08-23T04:32:54.491Z,97371.35
2022-08-23T04:35:25.560Z,97374.83
2022-08-23T04:37:55.171Z,97374.58
2022-08-23T04:40:42.137Z,97377.95
2022-08-23T04:43:10.961Z,97372.61
2022-08-23T04:45:41.143Z,97374.10
2022-08-23T04:48:13.956Z,97371.24
2022-08-23T04:50:43.159Z,97372.41
2022-08-23T04:53:17.868Z,97373.36
2022-08-23T04:56:02.851Z,97376.73
2022-08-23T04:58:32.870Z,97375.77
2022-08-23T05:01:07.949Z,97380.27
2022-08-23T05:03:37.366Z,97387.33
2022-08-23T05:06:06.183Z,97383.75
2022-08-23T05:08:40.513Z,97381.09
2022-08-23T05:11:11.812Z,97371.96
2022-08-23T05:13:42.462Z,97371.09
2022-08-23T05:16:30.778Z,97356.27
2022-08-23T05:19:03.880Z,97363.29
2022-08-23T05:21:34.088Z,97367.30
2022-08-23T05:24:03.778Z,97362.90
2022-08-23T05:26:32.430Z,97370.03
2022-08-23T05:29:00.874Z,97371.77
2022-08-23T05:31:37.585Z,97377.05
2022-08-23T05:34:05.870Z,97373.46
2022-08-23T05:36:47.644Z,97374.39
2022-08-23T05:39:36.013Z,97369.12
2022-08-23T05:42:12.393Z,97370.33
2022-08-23T05:44:41.190Z,97364.39
2022-08-23T05:47:15.631Z,97368.48
2022-08-23T05:50:02.852Z,97361.15
2022-08-23T05:52:40.758Z,97380.41
2022-08-23T05:55:16.800Z,97366.42
2022-08-23T05:57:57.589Z,97377.92
2022-08-23T06:00:38.061Z,97375.19
2022-08-23T06:03:09.548Z,97368.52
2022-08-23T06:05:42.356Z,97379.51
2022-08-23T06:08:12.343Z,97375.31
2022-08-23T06:10:42.440Z,97363.31
2022-08-23T06:13:22.723Z,97358.60
2022-08-23T06:15:50.900Z,97377.08
2022-08-23T06:18:23.830Z,97376.79
2022-08-23T06:21:01.669Z,97366.44
2022-08-23T06:23:41.838Z,97373.41
2022-08-23T06:26:17.730Z,97352.02
2022-08-23T06:28:50.205Z,97344.67
2022-08-23T06:31:41.024Z,97350.10
2022-08-23T06:34:27.263Z,97371.67
2022-08-23T06:37:14.890Z,97339.64
2022-08-23T06:40:08.475Z,97344.92
2022-08-23T06:43:07.485Z,97351.65
2022-08-23T06:45:58.127Z,97357.66
2022-08-23T06:48:29.344Z,97365.97
2022-08-23T06:51:03.410Z,97357.39
2022-08-23T06:54:04.669Z,97344.14
2022-08-23T06:57:00.737Z,97340.66
2022-08-23T06:59:37.464Z,97342.98
2022-08-23T07:02:17.443Z,97340.49
2022-08-23T07:05:04.828Z,97349.10
2022-08-23T07:07:53.136Z,97348.98
2022-08-23T07:10:21.712Z,97350.16
2022-08-23T07:12:50.584Z,97356.65
2022-08-23T07:15:23.239Z,97350.20
2022-08-23T07:17:53.992Z,97341.45
2022-08-23T07:20:22.203Z,97340.30
2022-08-23T07:22:50.758Z,97336.98
2022-08-23T07:25:21.654Z,97336.73
2022-08-23T07:27:54.630Z,97337.80
2022-08-23T07:30:23.858Z,97338.27
2022-08-23T07:32:54.671Z,97337.54
2022-08-23T07:35:25.990Z,97339.44
2022-08-23T07:37:58.425Z,97338.00
2022-08-23T07:40:33.518Z,97342.31
2022-08-23T07:43:05.686Z,97348.92
2022-08-23T07:45:41.664Z,97358.57
2022-08-23T07:48:14.488Z,97343.75
2022-08-23T07:51:14.016Z,97339.30
2022-08-23T07:53:46.042Z,97343.33
2022-08-23T07:56:20.934Z,97337.92
2022-08-23T07:59:10.690Z,97337.15
2022-08-23T08:01:53.696Z,97340.04
2022-08-23T08:04:23.677Z,97340.30
2022-08-23T08:07:17.206Z,97340.77
2022-08-23T08:09:44.775Z,97341.33
2022-08-23T08:12:15.691Z,97341.23
2022-08-23T08:14:49.786Z,97339.34
2022-08-23T08:17:24.191Z,97336.52
2022-08-23T08:20:15.361Z,97335.86
2022-08-23T08:23:18.848Z,97331.09
2022-08-23T08:26:27.775Z,97326.63
2022-08-23T08:29:00.348Z,97322.19
2022-08-23T08:31:30.111Z,97323.05
2022-08-23T08:33:58.486Z,97324.61
2022-08-23T08:36:39.926Z,97316.89
2022-08-23T08:39:15.975Z,97314.61
2022-08-23T08:42:05.540Z,97319.86
2022-08-23T08:44:54.474Z,97320.41
2022-08-23T08:47:46.655Z,97319.85
2022-08-23T08:50:19.850Z,97324.16
2022-08-23T08:52:55.932Z,97320.73
2022-08-23T08:55:43.268Z,97319.59
2022-08-23T08:58:22.910Z,97318.08
2022-08-23T09:00:56.553Z,97316.98
2022-08-23T09:03:36.763Z,97315.73
2022-08-23T09:06:14.749Z,97318.48
2022-08-23T09:08:58.559Z,97319.59
2022-08-23T09:11:57.791Z,97321.17
2022-08-23T09:15:24.343Z,97318.94
2022-08-23T09:18:09.783Z,97314.63
2022-08-23T09:20:44.784Z,97315.20
2022-08-23T09:23:22.069Z,97311.38
2022-08-23T09:26:02.614Z,97306.91
2022-08-23T09:28:46.344Z,97306.21
2022-08-23T09:31:39.223Z,97306.85
2022-08-23T09:34:18.467Z,97306.63
2022-08-23T09:37:27.524Z,97304.90
2022-08-23T09:40:20.280Z,97305.13
2022-08-23T09:43:04.972Z,97303.70
2022-08-23T09:45:38.496Z,97300.77
2022-08-23T09:48:12.902Z,97301.19
2022-08-23T09:51:01.316Z,97298.70
2022-08-23T09:53:30.362Z,97298.45
2022-08-23T09:56:28.594Z,97297.03
2022-08-23T09:58:59.035Z,97297.50
2022-08-23T10:01:47.666Z,97294.69
2022-08-23T10:04:32.218Z,97294.73
2022-08-23T10:07:42.884Z,97291.90
2022-08-23T10:10:48.043Z,97288.73
2022-08-23T10:13:22.477Z,97292.91
2022-08-23T10:16:06.213Z,97287.59
2022-08-23T10:18:56.638Z,97285.60
2022-08-23T10:21:44.953Z,97282.75
2022-08-23T10:24:28.331Z,97279.80
2022-08-23T10:27:31.240Z,97280.21
2022-08-23T10:30:08.625Z,97283.58
2022-08-23T10:33:02.268Z,97282.67
2022-08-23T10:35:45.404Z,97283.65
2022-08-23T10:38:27.285Z,97279.58
2022-08-23T10:41:06.360Z,97278.79
2022-08-23T10:43:37.565Z,97276.69
2022-08-23T10:46:08.706Z,97271.40
2022-08-23T10:48:54.766Z,97273.13
2022-08-23T10:51:47.245Z,97270.09
2022-08-23T10:54:46.910Z,97267.90
2022-08-23T10:57:22.355Z,97264.98
2022-08-23T10:59:53.168Z,97263.52
2022-08-23T11:02:45.181Z,97259.08
2022-08-23T11:05:30.502Z,97260.30
2022-08-23T11:08:06.115Z,97259.43
2022-08-23T11:10:38.099Z,97253.00
2022-08-23T11:13:18.995Z,97249.92
2022-08-23T11:16:23.494Z,97249.27
2022-08-23T11:18:53.933Z,97245.92
2022-08-23T11:21:32.045Z,97241.60
2022-08-23T11:24:16.593Z,97235.55
2022-08-23T11:26:47.784Z,97232.66
2022-08-23T11:29:23.952Z,97231.65
2022-08-23T11:32:20.093Z,97231.18
2022-08-23T11:35:09.080Z,97233.40
2022-08-23T11:38:09.354Z,97231.56
2022-08-23T11:41:18.140Z,97229.19
2022-08-23T11:44:03.769Z,97228.67
2022-08-23T11:46:50.147Z,97225.58
2022-08-23T11:49:31.122Z,97220.54
2022-08-23T11:52:18.385Z,97216.70
2022-08-23T11:55:11.073Z,97221.52
2022-08-23T11:58:01.773Z,97224.75
2022-08-23T12:01:10.431Z,97216.52
2022-08-23T12:03:54.358Z,97210.39
2022-08-23T12:06:22.642Z,97208.64
2022-08-23T12:09:01.714Z,97211.31
2022-08-23T12:12:02.519Z,97211.86
2022-08-23T12:14:30.799Z,97213.15
2022-08-23T12:17:04.119Z,97212.20
2022-08-23T12:19:59.963Z,97208.02
2022-08-23T12:22:34.512Z,97204.41
2022-08-23T12:25:08.852Z,97205.55
2022-08-23T12:27:52.571Z,97205.77
2022-08-23T12:30:26.324Z,97207.58
2022-08-23T12:33:13.819Z,97206.67
2022-08-23T12:35:44.651Z,97210.45
2022-08-23T12:38:38.169Z,97209.17
2022-08-23T12:41:33.554Z,97208.48
2022-08-23T12:44:08.017Z,97209.61
2022-08-23T12:46:42.495Z,97214.44
2022-08-23T12:49:31.733Z,97208.52
2022-08-23T12:52:08.970Z,97206.88
2022-08-23T12:54:46.565Z,97201.81
2022-08-23T12:57:19.459Z,97197.19
2022-08-23T13:00:16.694Z,97191.56
2022-08-23T13:03:01.456Z,97190.02
2022-08-23T13:05:56.720Z,97189.45
2022-08-23T13:08:39.756Z,97188.50
2022-08-23T13:11:12.737Z,97186.55
2022-08-23T13:13:44.254Z,97186.19
2022-08-23T13:16:27.671Z,97187.70
2022-08-23T13:19:15.781Z,97187.67
2022-08-23T13:21:45.376Z,97184.65
2022-08-23T13:24:37.879Z,97182.06
2022-08-23T13:27:17.589Z,97186.00
2022-08-23T13:29:57.274Z,97187.30
2022-08-23T13:32:49.088Z,97188.34
2022-08-23T13:35:36.676Z,97185.36
2022-08-23T13:38:21.027Z,97184.56
2022-08-23T13:40:57.743Z,97187.89
2022-08-23T13:43:34.606Z,97187.92
2022-08-23T13:46:22.601Z,97188.17
2022-08-23T13:49:37.904Z,97185.23
2022-08-23T13:53:12.989Z,97182.80
2022-08-23T13:55:19.810Z,97183.91
2022-08-23T13:57:49.702Z,97184.35
2022-08-23T14:00:22.705Z,97184.80
2022-08-23T14:02:53.115Z,97182.11
2022-08-23T14:05:22.956Z,97182.63
2022-08-23T14:07:53.418Z,97183.23
2022-08-23T14:10:23.334Z,97177.46
2022-08-23T14:12:54.754Z,97175.02
2022-08-23T14:15:54.679Z,97177.40
2022-08-23T14:18:13.542Z,97178.89
2022-08-23T14:20:46.191Z,97175.79
2022-08-23T14:23:14.691Z,97176.71
2022-08-23T14:25:43.686Z,97181.69
2022-08-23T14:28:12.083Z,97183.54
2022-08-23T14:30:40.422Z,97186.55
2022-08-23T14:33:08.665Z,97183.10
2022-08-23T14:35:37.097Z,97180.47
2022-08-23T14:38:05.427Z,97183.98
2022-08-23T14:40:37.710Z,97188.19
2022-08-23T14:43:06.974Z,97188.77
2022-08-23T14:45:35.303Z,97188.05
2022-08-23T14:48:04.555Z,97176.86
2022-08-23T14:50:33.275Z,97159.95
2022-08-23T14:53:05.585Z,97151.20
2022-08-23T14:55:34.129Z,97146.79
2022-08-23T14:58:04.227Z,97152.87
2022-08-23T15:00:35.551Z,97166.56
2022-08-23T15:03:09.768Z,97181.89
2022-08-23T15:05:40.213Z,97188.13
2022-08-23T15:08:10.742Z,97191.74
2022-08-23T15:12:57.796Z,97199.30
2022-08-23T15:13:33.884Z,97212.72
2022-08-23T15:16:08.004Z,97220.55
2022-08-23T15:18:38.508Z,97208.61
2022-08-23T15:21:07.385Z,97203.77
2022-08-23T15:23:35.904Z,97215.30
2022-08-23T15:26:04.670Z,97233.83
2022-08-23T15:28:38.372Z,97255.56
2022-08-23T15:31:06.803Z,97324.52
2022-08-23T15:33:35.560Z,97377.55
2022-08-23T15:36:04.222Z,97405.99
2022-08-23T15:38:36.315Z,97433.65
2022-08-23T15:41:04.789Z,97456.10
2022-08-23T15:43:35.199Z,97464.16
2022-08-23T15:46:07.119Z,97444.67
2022-08-23T15:48:44.870Z,97440.65
2022-08-23T15:51:17.914Z,97443.38
2022-08-23T15:53:46.449Z,97434.63
2022-08-23T15:56:21.304Z,97451.19
2022-08-23T15:58:49.905Z,97463.09
2022-08-23T16:01:20.772Z,97470.63
2022-08-23T16:03:52.500Z,97472.20
2022-08-23T16:06:20.754Z,97456.00
2022-08-23T16:08:52.514Z,97450.31
2022-08-23T16:11:22.086Z,97443.13
2022-08-23T16:13:55.143Z,97446.27
2022-08-23T16:16:32.415Z,97449.95
2022-08-23T16:19:01.105Z,97462.34
2022-08-23T16:21:30.890Z,97461.73
2022-08-23T16:23:59.832Z,97456.46
2022-08-23T16:26:34.811Z,97454.52
2022-08-23T16:29:10.385Z,97449.33
2022-08-23T16:31:41.119Z,97439.64
2022-08-23T16:34:14.929Z,97435.38
2022-08-23T16:36:47.246Z,97433.17
2022-08-23T16:39:17.073Z,97429.45
2022-08-23T16:41:45.660Z,97432.47
2022-08-23T16:44:14.027Z,97440.94
2022-08-23T16:46:44.099Z,97449.52
2022-08-23T16:49:15.520Z,97457.08
2022-08-23T16:51:43.741Z,97461.12
2022-08-23T16:54:12.331Z,97485.09
2022-08-23T16:56:41.638Z,97495.52
2022-08-23T16:59:12.886Z,97507.84
2022-08-23T17:01:58.884Z,97521.19
2022-08-23T17:04:30.515Z,97520.95
2022-08-23T17:07:00.386Z,97524.58
2022-08-23T17:09:30.514Z,97527.05
2022-08-23T17:11:58.954Z,97528.50
2022-08-23T17:14:27.418Z,97522.15
2022-08-23T17:16:55.622Z,97518.02
2022-08-23T17:19:23.945Z,97500.94
2022-08-23T17:21:54.287Z,97499.51
2022-08-23T17:24:24.557Z,97510.54
2022-08-23T17:26:52.567Z,97519.86
2022-08-23T17:29:20.594Z,97522.70
2022-08-23T17:31:49.303Z,97512.77
2022-08-23T17:34:17.914Z,97505.13
2022-08-23T17:36:52.543Z,97515.73
2022-08-23T17:39:27.459Z,97520.91
2022-08-23T17:41:56.393Z,97518.85
2022-08-23T17:44:25.179Z,97529.86
2022-08-23T17:46:53.465Z,97542.59
2022-08-23T17:49:21.798Z,97557.14
2022-08-23T17:51:49.983Z,97573.63
2022-08-23T17:54:18.577Z,97588.34
2022-08-23T17:56:50.643Z,97590.55
2022-08-23T17:59:20.305Z,97586.82
2022-08-23T18:01:49.501Z,97584.15
2022-08-23T18:04:18.561Z,97591.14
2022-08-23T18:06:47.029Z,97595.04
2022-08-23T18:09:16.175Z,97605.11
2022-08-23T18:11:44.641Z,97601.84
2022-08-23T18:14:13.191Z,97592.94
2022-08-23T18:16:44.056Z,97593.81
2022-08-23T18:19:15.738Z,97589.68
2022-08-23T18:21:44.654Z,97583.58
2022-08-23T18:24:13.648Z,97576.77
2022-08-23T18:27:01.050Z,97585.55
2022-08-23T18:29:33.116Z,97584.12
2022-08-23T18:32:01.300Z,97592.52
2022-08-23T18:34:30.348Z,97603.20
2022-08-23T18:36:59.522Z,97596.05
2022-08-23T18:39:31.807Z,97600.92
2022-08-23T18:42:02.716Z,97609.90
2022-08-23T18:44:31.903Z,97619.99
2022-08-23T18:47:02.207Z,97632.36
2022-08-23T18:49:32.278Z,97648.64
2022-08-23T18:52:01.330Z,97652.83
2022-08-23T18:54:33.544Z,97670.39
2022-08-23T18:57:03.707Z,97730.17
2022-08-23T18:59:32.853Z,97799.32
2022-08-23T19:02:01.443Z,97806.02
2022-08-23T19:04:31.182Z,97758.55
2022-08-23T19:06:59.747Z,97760.59
2022-08-23T19:09:28.141Z,97769.52
2022-08-23T19:11:56.847Z,97761.77
2022-08-23T19:14:24.857Z,97743.77
2022-08-23T19:16:53.207Z,97741.13
2022-08-23T19:19:22.871Z,97743.30
2022-08-23T19:21:50.978Z,97744.50
2022-08-23T19:24:19.162Z,97741.45
2022-08-23T19:26:50.042Z,97728.07
2022-08-23T19:29:20.680Z,97721.74
2022-08-23T19:31:50.373Z,97722.43
2022-08-23T19:34:20.230Z,97711.00
2022-08-23T19:36:56.828Z,97702.62
2022-08-23T19:39:30.225Z,97724.60
2022-08-23T19:41:58.400Z,97729.77
2022-08-23T19:44:26.904Z,97730.85
2022-08-23T19:46:56.184Z,97736.23
2022-08-23T19:49:24.763Z,97733.41
2022-08-23T19:51:53.127Z,97729.89
2022-08-23T19:54:21.329Z,97720.05
2022-08-23T19:56:57.766Z,97713.74
2022-08-23T19:59:29.576Z,97707.75
2022-08-23T20:01:59.464Z,97703.45
2022-08-23T20:04:29.827Z,97695.70
2022-08-23T20:06:59.886Z,97701.60
2022-08-23T20:09:31.687Z,97706.63
2022-08-23T20:12:01.082Z,97709.65
2022-08-23T20:14:33.811Z,97706.24
2022-08-23T20:17:04.605Z,97706.77
2022-08-23T20:19:33.125Z,97711.79
2022-08-23T20:22:20.970Z,97718.58
2022-08-23T20:24:52.166Z,97720.60
2022-08-23T20:27:24.148Z,97722.57
2022-08-23T20:30:01.536Z,97729.01
2022-08-23T20:32:31.324Z,97736.32
2022-08-23T20:35:00.835Z,97738.77
2022-08-23T20:37:30.102Z,97742.14
2022-08-23T20:39:58.186Z,97741.84
2022-08-23T20:42:26.343Z,97738.15
2022-08-23T20:44:54.588Z,97738.98
2022-08-23T20:47:22.826Z,97732.72
2022-08-23T20:49:51.169Z,97729.40
2022-08-23T20:52:19.230Z,97719.10
2022-08-23T20:54:47.239Z,97713.21
2022-08-23T20:57:15.212Z,97710.48
2022-08-23T20:59:44.983Z,97709.88
2022-08-23T21:02:13.627Z,97710.25
2022-08-23T21:04:42.059Z,97708.50
2022-08-23T21:07:10.145Z,97710.15
2022-08-23T21:09:38.319Z,97705.20
2022-08-23T21:12:06.670Z,97704.30
2022-08-23T21:14:35.204Z,97706.13
2022-08-23T21:17:03.484Z,97719.21
2022-08-23T21:19:31.608Z,97730.22
2022-08-23T21:22:00.057Z,97734.44
2022-08-23T21:24:28.556Z,97736.29
2022-08-23T21:26:56.547Z,97728.57
2022-08-23T21:29:29.190Z,97726.55
2022-08-23T21:31:57.910Z,97724.50
2022-08-23T21:34:26.505Z,97725.43
2022-08-23T21:36:54.831Z,97724.19
2022-08-23T21:39:22.797Z,97720.56
2022-08-23T21:41:52.340Z,97713.33
2022-08-23T21:44:21.751Z,97712.23
2022-08-23T21:46:49.830Z,97719.86
2022-08-23T21:49:20.955Z,97718.62
2022-08-23T21:51:49.802Z,97711.42
2022-08-23T21:54:18.493Z,97715.02
2022-08-23T21:56:47.097Z,97716.34
2022-08-23T21:59:17.935Z,97715.67
2022-08-23T22:01:46.731Z,97724.28
2022-08-23T22:04:15.982Z,97732.28
2022-08-23T22:06:45.875Z,97728.61
2022-08-23T22:09:18.258Z,97724.85
2022-08-23T22:11:48.534Z,97725.19
2022-08-23T22:14:21.647Z,97723.29
2022-08-23T22:16:55.405Z,97722.17
2022-08-23T22:19:24.173Z,97728.41
2022-08-23T22:21:53.160Z,97739.66
2022-08-23T22:24:25.798Z,97746.90
2022-08-23T22:26:55.944Z,97746.89
2022-08-23T22:29:24.623Z,97732.02
2022-08-23T22:31:52.875Z,97734.14
2022-08-23T22:34:21.003Z,97732.77
2022-08-23T22:36:52.130Z,97730.77
2022-08-23T22:39:22.814Z,97730.99
2022-08-23T22:41:51.604Z,97729.11
2022-08-23T22:44:19.687Z,97719.35
2022-08-23T22:46:47.916Z,97708.72
2022-08-23T22:49:16.075Z,97704.24
2022-08-23T22:51:44.611Z,97697.56
2022-08-23T22:54:14.515Z,97692.64
2022-08-23T22:56:50.666Z,97690.98
2022-08-23T22:59:21.375Z,97682.77
2022-08-23T23:01:53.190Z,97675.08
2022-08-23T23:04:26.630Z,97658.73
2022-08-23T23:06:55.812Z,97651.89
2022-08-23T23:09:24.859Z,97651.32
2022-08-23T23:11:54.052Z,97649.58
2022-08-23T23:14:22.987Z,97656.66
2022-08-23T23:16:53.238Z,97658.55
2022-08-23T23:19:40.594Z,97664.93
2022-08-23T23:22:09.346Z,97680.81
2022-08-23T23:24:39.806Z,97687.30
2022-08-23T23:27:08.550Z,97691.14
2022-08-23T23:29:36.710Z,97700.33
2022-08-23T23:32:05.869Z,97704.34
2022-08-23T23:34:34.891Z,97706.25
2022-08-23T23:37:03.001Z,97709.84
2022-08-23T23:39:31.042Z,97705.36
2022-08-23T23:41:59.016Z,97696.83
2022-08-23T23:44:31.198Z,97698.41
2022-08-23T23:47:01.695Z,97697.60
2022-08-23T23:49:33.106Z,97698.83
2022-08-23T23:52:04.675Z,97696.10
2022-08-23T23:54:35.592Z,97695.48
2022-08-23T23:57:05.755Z,97709.83
2022-08-23T23:59:34.613Z,97724.39
